Time,TemperatureF,DewpointF,PressureIn,WindDirection,WindDirectionDegrees,WindSpeedMPH,WindSpeedGustMPH,Humidity,HourlyPrecipIn,Conditions,Clouds,dailyrainin,SoftwareType,DateUTC
2013-04-08 00:02:00,57.3,56.5,29.94,SE,134,0.0,0.0,97,0.00,,---,0.00,VWS V14.01,2013-04-08 05:02:00,
2013-04-08 00:07:00,57.1,56.3,29.94,SE,134,0.0,0.0,97,0.00,,---,0.00,VWS V14.01,2013-04-08 05:07:00,
2013-04-08 00:16:00,56.9,56.1,29.94,SE,134,0.0,0.0,97,0.00,,---,0.00,VWS V14.01,2013-04-08 05:16:00,
2013-04-08 00:21:00,56.8,56.0,29.93,SE,134,0.0,0.0,97,0.00,,---,0.00,VWS V14.01,2013-04-08 05:21:00,
2013-04-08 00:26:00,56.7,55.9,29.93,SE,134,0.0,0.0,97,0.00,,---,0.00,VWS V14.01,2013-04-08 05:26:00,
2013-04-08 00:31:00,56.5,55.7,29.93,SE,134,0.0,0.0,97,0.00,,---,0.00,VWS V14.01,2013-04-08 05:31:00,
2013-04-08 00:36:00,56.5,55.7,29.93,SE,134,0.0,0.0,97,0.00,,---,0.00,VWS V14.01,2013-04-08 05:36:00,
2013-04-08 00:41:00,56.4,55.6,29.93,SE,134,0.0,0.0,97,0.00,,---,0.00,VWS V14.01,2013-04-08 05:41:00,
2013-04-08 00:46:00,56.3,55.5,29.93,SE,134,0.0,0.0,97,0.00,,---,0.00,VWS V14.01,2013-04-08 05:46:00,
2013-04-08 00:51:00,56.2,55.4,29.93,SE,134,0.0,0.0,97,0.00,,---,0.00,VWS V14.01,2013-04-08 05:51:00,
2013-04-08 00:56:00,56.2,55.7,29.93,SE,134,0.0,0.0,98,0.00,,---,0.00,VWS V14.01,2013-04-08 05:56:00,
2013-04-08 01:01:00,56.2,55.7,29.93,SE,134,0.0,0.0,98,0.00,,---,0.00,VWS V14.01,2013-04-08 06:01:00,
2013-04-08 01:07:00,56.2,55.7,29.93,SE,134,0.0,0.0,98,0.00,,---,0.00,VWS V14.01,2013-04-08 06:07:00,
2013-04-08 01:12:00,56.1,55.5,29.93,SE,134,0.0,0.0,98,0.00,,---,0.00,VWS V14.01,2013-04-08 06:12:00,
2013-04-08 01:17:00,55.9,55.1,29.93,SE,134,0.0,0.0,97,0.00,,---,0.00,VWS V14.01,2013-04-08 06:17:00,
2013-04-08 01:22:00,55.8,55.2,29.93,SE,134,0.0,0.0,98,0.00,,---,0.00,VWS V14.01,2013-04-08 06:22:00,
2013-04-08 01:27:00,55.7,55.2,29.92,SE,134,0.0,0.0,98,0.00,,---,0.00,VWS V14.01,2013-04-08 06:27:00,
2013-04-08 01:32:00,55.6,54.8,29.92,SE,134,0.0,0.0,97,0.00,,---,0.00,VWS V14.01,2013-04-08 06:32:00,
2013-04-08 01:37:00,55.4,54.8,29.92,SE,134,0.0,0.0,98,0.00,,---,0.00,VWS V14.01,2013-04-08 06:37:00,
2013-04-08 01:42:00,55.3,54.5,29.92,SE,134,0.0,0.0,97,0.00,,---,0.00,VWS V14.01,2013-04-08 06:42:00,
2013-04-08 01:47:00,55.1,54.3,29.92,SE,134,0.0,0.0,97,0.00,,---,0.00,VWS V14.01,2013-04-08 06:47:00,
2013-04-08 01:52:00,54.9,54.1,29.92,SE,134,0.0,0.0,97,0.00,,---,0.00,VWS V14.01,2013-04-08 06:52:00,
2013-04-08 01:57:00,54.8,54.0,29.92,SE,134,0.0,0.0,97,0.00,,---,0.00,VWS V14.01,2013-04-08 06:57:00,
2013-04-08 02:02:00,54.7,54.2,29.92,SE,134,0.0,0.0,98,0.00,,---,0.00,VWS V14.01,2013-04-08 07:02:00,
2013-04-08 02:07:00,54.7,54.2,29.91,SE,134,0.0,0.0,98,0.00,,---,0.00,VWS V14.01,2013-04-08 07:07:00,
2013-04-08 02:12:00,54.5,54.0,29.91,SE,134,0.0,0.0,98,0.00,,---,0.00,VWS V14.01,2013-04-08 07:12:00,
2013-04-08 02:17:00,54.5,54.0,29.91,SE,134,0.0,0.0,98,0.00,,---,0.00,VWS V14.01,2013-04-08 07:17:00,
2013-04-08 02:22:00,54.5,54.0,29.91,SE,134,0.0,0.0,98,0.00,,---,0.00,VWS V14.01,2013-04-08 07:22:00,
2013-04-08 02:27:00,54.6,54.0,29.91,SE,134,0.0,0.0,98,0.00,,---,0.00,VWS V14.01,2013-04-08 07:27:00,
2013-04-08 02:32:00,54.6,54.0,29.91,SE,134,0.0,0.0,98,0.00,,---,0.00,VWS V14.01,2013-04-08 07:32:00,
2013-04-08 02:37:00,54.6,54.0,29.91,SE,134,0.0,0.0,98,0.00,,---,0.00,VWS V14.01,2013-04-08 07:37:00,
2013-04-08 02:42:00,54.5,54.0,29.91,SE,134,0.0,0.0,98,0.00,,---,0.00,VWS V14.01,2013-04-08 07:42:00,
2013-04-08 02:47:00,54.4,53.8,29.91,SE,134,0.0,0.0,98,0.00,,---,0.00,VWS V14.01,2013-04-08 07:47:00,
2013-04-08 02:52:00,54.3,53.8,29.91,SE,134,0.0,0.0,98,0.00,,---,0.00,VWS V14.01,2013-04-08 07:52:00,
2013-04-08 02:57:00,54.3,53.8,29.90,SE,134,0.0,0.0,98,0.00,,---,0.00,VWS V14.01,2013-04-08 07:57:00,
2013-04-08 03:02:00,54.3,53.8,29.90,SE,134,0.0,0.0,98,0.00,,---,0.00,VWS V14.01,2013-04-08 08:02:00,
2013-04-08 03:07:00,54.3,53.8,29.90,SE,134,0.0,0.0,98,0.00,,---,0.00,VWS V14.01,2013-04-08 08:07:00,
2013-04-08 03:12:00,54.3,53.8,29.90,SE,134,0.0,0.0,98,0.00,,---,0.00,VWS V14.01,2013-04-08 08:12:00,
2013-04-08 03:17:00,54.3,53.8,29.90,SE,134,0.0,0.0,98,0.00,,---,0.00,VWS V14.01,2013-04-08 08:17:00,
2013-04-08 03:22:00,54.3,53.8,29.90,SE,134,0.0,0.0,98,0.00,,---,0.00,VWS V14.01,2013-04-08 08:22:00,
2013-04-08 03:27:00,54.5,54.0,29.90,SE,134,0.0,0.0,98,0.00,,---,0.00,VWS V14.01,2013-04-08 08:27:00,
2013-04-08 03:32:00,54.6,54.0,29.89,SE,134,0.0,0.0,98,0.00,,---,0.00,VWS V14.01,2013-04-08 08:32:00,
2013-04-08 03:37:00,54.6,54.0,29.89,SE,134,0.0,0.0,98,0.00,,---,0.00,VWS V14.01,2013-04-08 08:37:00,
2013-04-08 03:42:00,54.5,54.0,29.89,SE,134,0.0,0.0,98,0.00,,---,0.00,VWS V14.01,2013-04-08 08:42:00,
2013-04-08 03:47:00,54.6,54.0,29.89,SE,134,0.0,0.0,98,0.00,,---,0.00,VWS V14.01,2013-04-08 08:47:00,
2013-04-08 03:52:00,54.6,54.0,29.89,SE,134,0.0,0.0,98,0.00,,---,0.00,VWS V14.01,2013-04-08 08:52:00,
2013-04-08 03:57:00,54.8,54.2,29.89,SE,134,0.0,0.0,98,0.00,,---,0.00,VWS V14.01,2013-04-08 08:57:00,
2013-04-08 04:02:00,55.0,54.5,29.89,SE,134,0.0,0.0,98,0.00,,---,0.00,VWS V14.01,2013-04-08 09:02:00,
2013-04-08 04:07:00,55.4,54.8,29.89,SE,134,0.0,0.0,98,0.00,,---,0.00,VWS V14.01,2013-04-08 09:07:00,
2013-04-08 04:12:00,55.9,55.3,29.89,SE,134,0.0,0.0,98,0.00,,---,0.00,VWS V14.01,2013-04-08 09:12:00,
2013-04-08 04:17:00,56.2,55.7,29.89,SE,134,0.0,0.0,98,0.00,,---,0.00,VWS V14.01,2013-04-08 09:17:00,
2013-04-08 04:22:00,56.6,56.3,29.89,SE,134,0.0,0.0,99,0.00,,---,0.00,VWS V14.01,2013-04-08 09:22:00,
2013-04-08 04:27:00,56.8,56.5,29.89,SE,134,0.0,0.0,99,0.00,,---,0.00,VWS V14.01,2013-04-08 09:27:00,
2013-04-08 04:32:00,56.8,56.5,29.89,SE,134,0.0,0.0,99,0.00,,---,0.00,VWS V14.01,2013-04-08 09:32:00,
2013-04-08 04:37:00,56.8,56.5,29.89,SE,134,0.0,0.0,99,0.00,,---,0.00,VWS V14.01,2013-04-08 09:37:00,
2013-04-08 04:42:00,56.9,56.6,29.89,SE,134,0.0,0.0,99,0.00,,---,0.00,VWS V14.01,2013-04-08 09:42:00,
2013-04-08 04:47:00,57.1,56.8,29.89,SE,134,0.0,0.0,99,0.00,,---,0.00,VWS V14.01,2013-04-08 09:47:00,
2013-04-08 04:52:00,57.0,56.7,29.89,SE,134,0.0,0.0,99,0.00,,---,0.00,VWS V14.01,2013-04-08 09:52:00,
2013-04-08 04:57:00,56.8,56.2,29.89,SE,134,0.0,0.0,98,0.00,,---,0.00,VWS V14.01,2013-04-08 09:57:00,
2013-04-08 05:02:00,56.7,56.1,29.89,SE,134,0.0,0.0,98,0.00,,---,0.00,VWS V14.01,2013-04-08 10:02:00,
2013-04-08 05:07:00,56.7,56.1,29.90,SE,134,0.0,0.0,98,0.00,,---,0.00,VWS V14.01,2013-04-08 10:07:00,
2013-04-08 05:12:00,56.6,56.0,29.90,SE,134,0.0,0.0,98,0.00,,---,0.00,VWS V14.01,2013-04-08 10:12:00,
2013-04-08 05:17:00,56.6,56.0,29.90,SE,134,0.0,0.0,98,0.00,,---,0.00,VWS V14.01,2013-04-08 10:17:00,
2013-04-08 05:22:00,56.4,55.8,29.90,SE,134,0.0,0.0,98,0.00,,---,0.00,VWS V14.01,2013-04-08 10:22:00,
2013-04-08 05:27:00,56.2,55.7,29.90,SE,134,0.0,0.0,98,0.00,,---,0.00,VWS V14.01,2013-04-08 10:27:00,
2013-04-08 05:32:00,56.0,55.5,29.90,SE,134,0.0,0.0,98,0.00,,---,0.00,VWS V14.01,2013-04-08 10:32:00,
2013-04-08 05:37:00,55.9,55.3,29.91,SE,134,0.0,0.0,98,0.00,,---,0.00,VWS V14.01,2013-04-08 10:37:00,
2013-04-08 05:42:00,55.8,55.2,29.91,SE,134,0.0,0.0,98,0.00,,---,0.00,VWS V14.01,2013-04-08 10:42:00,
2013-04-08 05:47:00,55.7,55.2,29.91,SE,134,0.0,0.0,98,0.00,,---,0.00,VWS V14.01,2013-04-08 10:47:00,
2013-04-08 05:52:00,55.5,55.0,29.91,SE,134,0.0,0.0,98,0.00,,---,0.00,VWS V14.01,2013-04-08 10:52:00,
2013-04-08 05:57:00,55.5,55.0,29.91,SE,134,0.0,0.0,98,0.00,,---,0.00,VWS V14.01,2013-04-08 10:57:00,
2013-04-08 06:02:00,55.4,54.8,29.92,SE,134,0.0,0.0,98,0.00,,---,0.00,VWS V14.01,2013-04-08 11:02:00,
2013-04-08 06:07:00,55.2,54.7,29.92,SE,134,0.0,0.0,98,0.00,,---,0.00,VWS V14.01,2013-04-08 11:07:00,
2013-04-08 06:12:00,55.0,54.5,29.92,SE,134,0.0,0.0,98,0.00,,---,0.00,VWS V14.01,2013-04-08 11:12:00,
2013-04-08 06:17:00,54.9,54.3,29.92,SE,134,0.0,0.0,98,0.00,,---,0.00,VWS V14.01,2013-04-08 11:17:00,
2013-04-08 06:22:00,55.0,54.5,29.92,SE,134,0.0,0.0,98,0.00,,---,0.00,VWS V14.01,2013-04-08 11:22:00,
2013-04-08 06:27:00,55.1,54.5,29.92,SE,134,0.0,0.0,98,0.00,,---,0.00,VWS V14.01,2013-04-08 11:27:00,
2013-04-08 06:32:00,55.2,54.7,29.92,SE,134,0.0,0.0,98,0.00,,---,0.00,VWS V14.01,2013-04-08 11:32:00,
2013-04-08 06:37:00,55.2,54.9,29.93,SE,134,0.0,0.0,99,0.00,,---,0.00,VWS V14.01,2013-04-08 11:37:00,
2013-04-08 06:42:00,55.1,54.8,29.93,SE,134,0.0,0.0,99,0.00,,---,0.00,VWS V14.01,2013-04-08 11:42:00,
2013-04-08 06:47:00,55.2,54.9,29.92,SE,134,0.0,0.0,99,0.00,,---,0.00,VWS V14.01,2013-04-08 11:47:00,
2013-04-08 06:52:00,55.3,55.0,29.92,SE,134,0.0,0.0,99,0.00,,---,0.00,VWS V14.01,2013-04-08 11:52:00,
2013-04-08 06:57:00,55.4,55.1,29.93,SE,134,0.0,1.0,99,0.00,,---,0.00,VWS V14.01,2013-04-08 11:57:00,
2013-04-08 07:02:00,55.4,55.1,29.93,SE,134,0.0,1.0,99,0.00,,---,0.00,VWS V14.01,2013-04-08 12:02:00,
2013-04-08 07:07:00,55.5,55.2,29.93,SE,134,0.0,0.0,99,0.00,,---,0.00,VWS V14.01,2013-04-08 12:07:00,
2013-04-08 07:12:00,55.8,55.5,29.93,SE,134,0.0,0.0,99,0.00,,---,0.00,VWS V14.01,2013-04-08 12:12:00,
2013-04-08 07:17:00,56.1,55.8,29.93,SE,134,0.0,0.0,99,0.00,,---,0.00,VWS V14.01,2013-04-08 12:17:00,
2013-04-08 07:22:00,56.5,56.2,29.93,SE,134,0.0,0.0,99,0.00,,---,0.00,VWS V14.01,2013-04-08 12:22:00,
2013-04-08 07:27:00,57.0,56.7,29.94,SE,134,0.0,0.0,99,0.00,,---,0.00,VWS V14.01,2013-04-08 12:27:00,
2013-04-08 07:32:00,57.4,57.1,29.94,SE,134,0.0,0.0,99,0.00,,---,0.00,VWS V14.01,2013-04-08 12:32:00,
2013-04-08 07:37:00,58.0,57.7,29.94,SE,134,0.0,0.0,99,0.00,,---,0.00,VWS V14.01,2013-04-08 12:37:00,
2013-04-08 07:42:00,58.5,58.2,29.94,SE,134,0.0,0.0,99,0.00,,---,0.00,VWS V14.01,2013-04-08 12:42:00,
2013-04-08 07:47:00,59.0,58.7,29.94,SE,134,0.0,0.0,99,0.00,,---,0.00,VWS V14.01,2013-04-08 12:47:00,
2013-04-08 07:52:00,59.6,59.3,29.94,SE,134,0.0,0.0,99,0.00,,---,0.00,VWS V14.01,2013-04-08 12:52:00,
2013-04-08 07:57:00,60.5,60.2,29.94,SE,134,0.0,0.0,99,0.00,,---,0.00,VWS V14.01,2013-04-08 12:57:00,
2013-04-08 08:02:00,61.1,60.8,29.94,SE,134,0.0,0.0,99,0.00,,---,0.00,VWS V14.01,2013-04-08 13:02:00,
2013-04-08 08:07:00,61.6,61.3,29.94,SE,134,0.0,1.0,99,0.00,,---,0.00,VWS V14.01,2013-04-08 13:07:00,
2013-04-08 08:12:00,62.2,61.9,29.94,SE,134,0.0,1.0,99,0.00,,---,0.00,VWS V14.01,2013-04-08 13:12:00,
2013-04-08 08:17:00,62.7,62.4,29.94,SE,134,0.0,1.0,99,0.00,,---,0.00,VWS V14.01,2013-04-08 13:17:00,
2013-04-08 08:22:00,63.3,63.0,29.94,SE,134,0.0,1.0,99,0.00,,---,0.00,VWS V14.01,2013-04-08 13:22:00,
2013-04-08 08:27:00,64.0,63.7,29.94,SE,134,0.0,1.0,99,0.00,,---,0.00,VWS V14.01,2013-04-08 13:27:00,
2013-04-08 08:32:00,64.5,64.2,29.94,SE,134,0.0,1.0,99,0.00,,---,0.00,VWS V14.01,2013-04-08 13:32:00,
2013-04-08 08:37:00,65.4,65.1,29.94,SE,134,0.0,0.0,99,0.00,,---,0.00,VWS V14.01,2013-04-08 13:37:00,
2013-04-08 08:42:00,66.6,66.3,29.94,SE,134,0.0,0.0,99,0.00,,---,0.00,VWS V14.01,2013-04-08 13:42:00,
2013-04-08 08:47:00,67.3,67.0,29.94,SE,134,0.0,0.0,99,0.00,,---,0.00,VWS V14.01,2013-04-08 13:47:00,
2013-04-08 08:52:00,68.1,67.8,29.94,SE,134,0.0,0.0,99,0.00,,---,0.00,VWS V14.01,2013-04-08 13:52:00,
2013-04-08 08:57:00,68.9,68.6,29.95,SE,134,0.0,1.0,99,0.00,,---,0.00,VWS V14.01,2013-04-08 13:57:00,
2013-04-08 09:02:00,69.6,69.3,29.95,South,170,0.0,1.0,99,0.00,,---,0.00,VWS V14.01,2013-04-08 14:02:00,
2013-04-08 09:07:00,70.7,70.1,29.95,SE,143,0.0,1.0,98,0.00,,---,0.00,VWS V14.01,2013-04-08 14:07:00,
2013-04-08 09:12:00,71.6,69.8,29.95,SE,134,0.0,1.0,94,0.00,,---,0.00,VWS V14.01,2013-04-08 14:12:00,
2013-04-08 09:17:00,72.4,69.6,29.95,SSE,159,0.0,1.0,91,0.00,,---,0.00,VWS V14.01,2013-04-08 14:17:00,
2013-04-08 09:22:00,72.4,69.0,29.95,SE,132,0.0,2.0,89,0.00,,---,0.00,VWS V14.01,2013-04-08 14:22:00,
2013-04-08 09:27:00,72.9,69.1,29.95,SSE,158,0.0,2.0,88,0.00,,---,0.00,VWS V14.01,2013-04-08 14:27:00,
2013-04-08 09:32:00,73.5,69.1,29.95,SSW,193,1.0,4.0,86,0.00,,---,0.00,VWS V14.01,2013-04-08 14:32:00,
2013-04-08 09:37:00,73.7,68.9,29.95,SE,138,0.0,4.0,85,0.00,,---,0.00,VWS V14.01,2013-04-08 14:37:00,
2013-04-08 09:42:00,74.0,69.2,29.96,SSW,211,0.0,4.0,85,0.00,,---,0.00,VWS V14.01,2013-04-08 14:42:00,
2013-04-08 09:47:00,74.0,68.9,29.96,SSE,168,0.0,4.0,84,0.00,,---,0.00,VWS V14.01,2013-04-08 14:47:00,
2013-04-08 09:52:00,74.1,68.6,29.96,SSE,148,0.0,4.0,83,0.00,,---,0.00,VWS V14.01,2013-04-08 14:52:00,
2013-04-08 09:57:00,73.9,68.1,29.96,SSE,160,0.0,4.0,82,0.00,,---,0.00,VWS V14.01,2013-04-08 14:57:00,
2013-04-08 10:02:00,74.2,68.7,29.96,SSW,212,0.0,4.0,83,0.00,,---,0.00,VWS V14.01,2013-04-08 15:02:00,
2013-04-08 10:07:00,74.3,68.4,29.97,SE,145,0.0,5.0,82,0.00,,---,0.00,VWS V14.01,2013-04-08 15:07:00,
2013-04-08 10:12:00,74.6,68.8,29.97,SSE,162,0.0,5.0,82,0.00,,---,0.00,VWS V14.01,2013-04-08 15:12:00,
2013-04-08 10:17:00,75.1,68.9,29.97,SSE,148,1.0,5.0,81,0.00,,---,0.00,VWS V14.01,2013-04-08 15:17:00,
2013-04-08 10:22:00,75.8,68.8,29.97,SE,133,1.0,7.0,79,0.00,,---,0.00,VWS V14.01,2013-04-08 15:22:00,
2013-04-08 10:27:00,76.4,69.0,29.97,SSE,159,2.0,7.0,78,0.00,,---,0.00,VWS V14.01,2013-04-08 15:27:00,
2013-04-08 10:32:00,76.6,68.1,29.97,SE,141,2.0,7.0,75,0.00,,---,0.00,VWS V14.01,2013-04-08 15:32:00,
2013-04-08 10:37:00,76.5,68.4,29.97,ESE,115,2.0,4.0,76,0.00,,---,0.00,VWS V14.01,2013-04-08 15:37:00,
2013-04-08 10:42:00,76.7,68.6,29.97,SE,133,1.0,4.0,76,0.00,,---,0.00,VWS V14.01,2013-04-08 15:42:00,
2013-04-08 10:48:00,77.4,68.9,29.97,SE,143,0.0,4.0,75,0.00,,---,0.00,VWS V14.01,2013-04-08 15:48:00,
2013-04-08 10:53:00,77.7,68.4,29.97,SSE,159,1.0,4.0,73,0.00,,---,0.00,VWS V14.01,2013-04-08 15:53:00,
2013-04-08 10:58:00,78.1,69.1,29.97,SSE,158,0.0,4.0,74,0.00,,---,0.00,VWS V14.01,2013-04-08 15:58:00,
2013-04-08 11:03:00,78.4,68.2,29.97,SSW,204,3.0,4.0,71,0.00,,---,0.00,VWS V14.01,2013-04-08 16:03:00,
2013-04-08 11:08:00,78.6,68.8,29.98,SSE,151,0.0,2.0,72,0.00,,---,0.00,VWS V14.01,2013-04-08 16:08:00,
2013-04-08 11:13:00,78.5,68.3,29.98,SW,218,1.0,5.0,71,0.00,,---,0.00,VWS V14.01,2013-04-08 16:13:00,
2013-04-08 11:45:00,79.8,68.7,29.97,SE,139,2.0,2.0,69,0.00,,---,0.00,VWS V14.01,2013-04-08 16:45:00,
2013-04-08 11:51:00,80.2,68.7,29.97,East,91,2.0,4.0,68,0.00,,---,0.00,VWS V14.01,2013-04-08 16:51:00,
2013-04-08 11:56:00,80.6,69.1,29.97,South,188,2.0,4.0,68,0.00,,---,0.00,VWS V14.01,2013-04-08 16:56:00,
2013-04-08 12:01:00,80.5,67.7,29.97,SSE,159,1.0,4.0,65,0.00,,---,0.00,VWS V14.01,2013-04-08 17:01:00,
2013-04-08 12:05:00,80.8,69.3,29.97,SSW,212,1.0,4.0,68,0.00,,---,0.00,VWS V14.01,2013-04-08 17:05:00,
2013-04-08 12:10:00,80.4,68.4,29.97,South,177,2.0,4.0,67,0.00,,---,0.00,VWS V14.01,2013-04-08 17:10:00,
2013-04-08 12:15:00,80.5,69.0,29.97,SSW,210,3.0,4.0,68,0.00,,---,0.00,VWS V14.01,2013-04-08 17:15:00,
2013-04-08 12:20:00,80.5,68.5,29.97,SSW,208,3.0,8.0,67,0.00,,---,0.00,VWS V14.01,2013-04-08 17:20:00,
2013-04-08 12:25:00,80.8,69.7,29.97,SSW,212,3.0,8.0,69,0.00,,---,0.00,VWS V14.01,2013-04-08 17:25:00,
2013-04-08 12:30:00,81.3,68.0,29.97,SE,129,2.0,9.0,64,0.00,,---,0.00,VWS V14.01,2013-04-08 17:30:00,
2013-04-08 12:35:00,81.3,68.4,29.97,SSW,211,2.0,3.0,65,0.00,,---,0.00,VWS V14.01,2013-04-08 17:35:00,
2013-04-08 12:41:00,81.3,68.0,29.97,SE,146,4.0,6.0,64,0.00,,---,0.00,VWS V14.01,2013-04-08 17:41:00,
2013-04-08 12:46:00,81.2,67.9,29.97,SE,131,3.0,6.0,64,0.00,,---,0.00,VWS V14.01,2013-04-08 17:46:00,
2013-04-08 12:51:00,81.0,68.1,29.97,South,174,1.0,6.0,65,0.00,,---,0.00,VWS V14.01,2013-04-08 17:51:00,
2013-04-08 12:56:00,81.1,67.8,29.97,SSW,195,2.0,8.0,64,0.00,,---,0.00,VWS V14.01,2013-04-08 17:56:00,
2013-04-08 13:01:00,81.0,68.1,29.97,ESE,121,3.0,8.0,65,0.00,,---,0.00,VWS V14.01,2013-04-08 18:01:00,
2013-04-08 13:06:00,80.8,67.5,29.97,SE,136,0.0,9.0,64,0.00,,---,0.00,VWS V14.01,2013-04-08 18:06:00,
2013-04-08 13:11:00,80.7,67.4,29.96,ESE,121,1.0,9.0,64,0.00,,---,0.00,VWS V14.01,2013-04-08 18:11:00,
2013-04-08 13:15:00,80.8,67.0,29.96,South,184,0.0,9.0,63,0.00,,---,0.00,VWS V14.01,2013-04-08 18:15:00,
2013-04-08 13:20:00,80.6,67.3,29.96,SSE,162,1.0,10.0,64,0.00,,---,0.00,VWS V14.01,2013-04-08 18:20:00,
2013-04-08 13:25:00,80.4,67.1,29.96,SSW,199,1.0,10.0,64,0.00,,---,0.00,VWS V14.01,2013-04-08 18:25:00,
2013-04-08 13:30:00,80.4,67.6,29.96,SW,226,1.0,10.0,65,0.00,,---,0.00,VWS V14.01,2013-04-08 18:30:00,
2013-04-08 13:35:00,80.2,66.9,29.96,SSW,210,3.0,5.0,64,0.00,,---,0.00,VWS V14.01,2013-04-08 18:35:00,
2013-04-08 13:40:00,80.4,65.7,29.95,SE,139,1.0,5.0,61,0.00,,---,0.00,VWS V14.01,2013-04-08 18:40:00,
2013-04-08 13:45:00,79.9,66.2,29.95,South,169,1.0,5.0,63,0.00,,---,0.00,VWS V14.01,2013-04-08 18:45:00,
2013-04-08 13:51:00,80.5,66.8,29.95,ESE,118,1.0,5.0,63,0.00,,---,0.00,VWS V14.01,2013-04-08 18:51:00,
2013-04-08 13:56:00,80.7,67.8,29.95,SE,145,0.0,5.0,65,0.00,,---,0.00,VWS V14.01,2013-04-08 18:56:00,
2013-04-08 14:01:00,81.0,68.6,29.95,SE,141,1.0,5.0,66,0.00,,---,0.00,VWS V14.01,2013-04-08 19:01:00,
2013-04-08 14:06:00,80.8,67.9,29.95,South,172,0.0,1.0,65,0.00,,---,0.00,VWS V14.01,2013-04-08 19:06:00,
2013-04-08 14:11:00,80.0,66.7,29.94,South,181,1.0,3.0,64,0.00,,---,0.00,VWS V14.01,2013-04-08 19:11:00,
2013-04-08 14:16:00,79.8,68.3,29.94,SSW,207,0.0,3.0,68,0.00,,---,0.00,VWS V14.01,2013-04-08 19:16:00,
2013-04-08 14:21:00,79.6,68.1,29.95,ESE,109,1.0,3.0,68,0.00,,---,0.00,VWS V14.01,2013-04-08 19:21:00,
2013-04-08 14:26:00,79.4,69.2,29.94,ESE,108,1.0,3.0,71,0.00,,---,0.00,VWS V14.01,2013-04-08 19:26:00,
2013-04-08 14:31:00,80.4,68.4,29.94,SW,224,3.0,3.0,67,0.00,,---,0.00,VWS V14.01,2013-04-08 19:31:00,
2013-04-08 14:36:00,80.3,67.5,29.94,SE,127,1.0,3.0,65,0.00,,---,0.00,VWS V14.01,2013-04-08 19:36:00,
2013-04-08 14:41:00,79.6,67.7,29.94,ESE,112,1.0,3.0,67,0.00,,---,0.00,VWS V14.01,2013-04-08 19:41:00,
2013-04-08 14:46:00,79.7,67.3,29.94,SE,124,1.0,3.0,66,0.00,,---,0.00,VWS V14.01,2013-04-08 19:46:00,
2013-04-08 14:51:00,79.8,68.7,29.94,SSE,158,0.0,3.0,69,0.00,,---,0.00,VWS V14.01,2013-04-08 19:51:00,
2013-04-08 14:56:00,79.9,67.5,29.94,SE,130,2.0,3.0,66,0.00,,---,0.00,VWS V14.01,2013-04-08 19:56:00,
2013-04-08 15:01:00,79.6,67.7,29.93,SSW,205,1.0,4.0,67,0.00,,---,0.00,VWS V14.01,2013-04-08 20:01:00,
2013-04-08 15:06:00,79.4,67.9,29.93,South,179,0.0,2.0,68,0.00,,---,0.00,VWS V14.01,2013-04-08 20:06:00,
2013-04-08 15:11:00,79.0,67.6,29.93,ESE,117,1.0,2.0,68,0.00,,---,0.00,VWS V14.01,2013-04-08 20:11:00,
2013-04-08 15:16:00,78.5,67.9,29.93,SE,139,1.0,2.0,70,0.00,,---,0.00,VWS V14.01,2013-04-08 20:16:00,
2013-04-08 15:21:00,78.3,67.3,29.93,SE,142,0.0,3.0,69,0.00,,---,0.00,VWS V14.01,2013-04-08 20:21:00,
2013-04-08 15:26:00,78.3,67.7,29.93,SE,131,0.0,3.0,70,0.00,,---,0.00,VWS V14.01,2013-04-08 20:26:00,
2013-04-08 15:31:00,78.3,68.1,29.92,SE,135,1.0,3.0,71,0.00,,---,0.00,VWS V14.01,2013-04-08 20:31:00,
2013-04-08 15:36:00,78.4,67.8,29.92,SE,139,1.0,2.0,70,0.00,,---,0.00,VWS V14.01,2013-04-08 20:36:00,
2013-04-08 15:41:00,78.4,68.2,29.92,ESE,121,0.0,2.0,71,0.00,,---,0.00,VWS V14.01,2013-04-08 20:41:00,
2013-04-08 15:47:00,78.2,68.4,29.92,SE,130,1.0,3.0,72,0.00,,---,0.00,VWS V14.01,2013-04-08 20:47:00,
2013-04-08 15:52:00,78.5,68.3,29.92,SSE,163,2.0,3.0,71,0.00,,---,0.00,VWS V14.01,2013-04-08 20:52:00,
2013-04-08 15:57:00,78.4,69.0,29.92,ESE,120,2.0,3.0,73,0.00,,---,0.00,VWS V14.01,2013-04-08 20:57:00,
2013-04-08 16:02:00,78.8,69.0,29.92,ESE,116,3.0,4.0,72,0.00,,---,0.00,VWS V14.01,2013-04-08 21:02:00,
2013-04-08 16:07:00,79.1,69.3,29.92,SE,145,0.0,2.0,72,0.00,,---,0.00,VWS V14.01,2013-04-08 21:07:00,
2013-04-08 16:12:00,79.2,69.4,29.92,SE,128,1.0,2.0,72,0.00,,---,0.00,VWS V14.01,2013-04-08 21:12:00,
2013-04-08 16:17:00,78.8,69.0,29.92,SSE,147,2.0,3.0,72,0.00,,---,0.00,VWS V14.01,2013-04-08 21:17:00,
2013-04-08 16:22:00,78.5,69.5,29.92,SE,129,0.0,3.0,74,0.00,,---,0.00,VWS V14.01,2013-04-08 21:22:00,
2013-04-08 16:27:00,78.9,69.9,29.91,SSW,204,1.0,3.0,74,0.00,,---,0.00,VWS V14.01,2013-04-08 21:27:00,
2013-04-08 16:32:00,78.8,69.8,29.91,SE,131,0.0,3.0,74,0.00,,---,0.00,VWS V14.01,2013-04-08 21:32:00,
2013-04-08 16:37:00,78.4,69.4,29.91,SE,127,3.0,3.0,74,0.00,,---,0.00,VWS V14.01,2013-04-08 21:37:00,
2013-04-08 16:42:00,77.9,69.7,29.91,SSE,148,0.0,3.0,76,0.00,,---,0.00,VWS V14.01,2013-04-08 21:42:00,
2013-04-08 16:47:00,77.9,69.7,29.91,South,183,1.0,3.0,76,0.00,,---,0.00,VWS V14.01,2013-04-08 21:47:00,
2013-04-08 16:52:00,77.6,69.1,29.91,SE,127,1.0,3.0,75,0.00,,---,0.00,VWS V14.01,2013-04-08 21:52:00,
2013-04-08 16:57:00,77.6,69.8,29.91,SE,132,1.0,3.0,77,0.00,,---,0.00,VWS V14.01,2013-04-08 21:57:00,
2013-04-08 17:02:00,77.5,69.0,29.91,ESE,120,0.0,3.0,75,0.00,,---,0.00,VWS V14.01,2013-04-08 22:02:00,
2013-04-08 17:07:00,77.2,69.1,29.91,SSE,160,1.0,3.0,76,0.00,,---,0.00,VWS V14.01,2013-04-08 22:07:00,
2013-04-08 17:12:00,77.1,69.0,29.91,SE,143,2.0,4.0,76,0.00,,---,0.00,VWS V14.01,2013-04-08 22:12:00,
2013-04-08 17:17:00,77.1,69.0,29.91,ESE,117,2.0,4.0,76,0.00,,---,0.00,VWS V14.01,2013-04-08 22:17:00,
2013-04-08 17:22:00,76.9,68.8,29.91,ESE,116,1.0,4.0,76,0.00,,---,0.00,VWS V14.01,2013-04-08 22:22:00,
2013-04-08 17:27:00,76.8,69.1,29.91,ESE,122,1.0,4.0,77,0.00,,---,0.00,VWS V14.01,2013-04-08 22:27:00,
2013-04-08 17:32:00,76.5,68.8,29.91,South,185,0.0,4.0,77,0.00,,---,0.00,VWS V14.01,2013-04-08 22:32:00,
2013-04-08 17:37:00,76.4,68.7,29.92,SE,131,0.0,1.0,77,0.00,,---,0.00,VWS V14.01,2013-04-08 22:37:00,
2013-04-08 17:42:00,76.4,69.0,29.92,SE,135,1.0,2.0,78,0.00,,---,0.00,VWS V14.01,2013-04-08 22:42:00,
2013-04-08 17:47:00,76.2,68.8,29.92,SE,135,0.0,2.0,78,0.00,,---,0.00,VWS V14.01,2013-04-08 22:47:00,
2013-04-08 17:52:00,75.9,68.6,29.92,SE,145,0.0,2.0,78,0.00,,---,0.00,VWS V14.01,2013-04-08 22:52:00,
2013-04-08 17:57:00,75.7,68.7,29.92,SE,138,0.0,2.0,79,0.00,,---,0.00,VWS V14.01,2013-04-08 22:57:00,
2013-04-08 18:02:00,75.4,68.4,29.92,SE,139,2.0,4.0,79,0.00,,---,0.00,VWS V14.01,2013-04-08 23:02:00,
2013-04-08 18:07:00,75.1,68.2,29.92,SW,226,2.0,3.0,79,0.00,,---,0.00,VWS V14.01,2013-04-08 23:07:00,
2013-04-08 18:12:00,74.8,68.6,29.92,SSE,160,0.0,3.0,81,0.00,,---,0.00,VWS V14.01,2013-04-08 23:12:00,
2013-04-08 18:17:00,74.5,68.3,29.93,SE,138,2.0,3.0,81,0.00,,---,0.00,VWS V14.01,2013-04-08 23:17:00,
2013-04-08 18:22:00,74.3,68.1,29.93,SE,133,0.0,3.0,81,0.00,,---,0.00,VWS V14.01,2013-04-08 23:22:00,
2013-04-08 18:27:00,74.1,68.3,29.93,SE,138,0.0,3.0,82,0.00,,---,0.00,VWS V14.01,2013-04-08 23:27:00,
2013-04-08 18:32:00,74.0,68.2,29.93,SE,128,0.0,3.0,82,0.00,,---,0.00,VWS V14.01,2013-04-08 23:32:00,
2013-04-08 18:37:00,73.9,68.4,29.93,SE,132,0.0,2.0,83,0.00,,---,0.00,VWS V14.01,2013-04-08 23:37:00,
2013-04-08 18:42:00,73.8,68.3,29.93,SE,125,0.0,2.0,83,0.00,,---,0.00,VWS V14.01,2013-04-08 23:42:00,
2013-04-08 18:47:00,73.6,68.1,29.93,SE,129,0.0,3.0,83,0.00,,---,0.00,VWS V14.01,2013-04-08 23:47:00,
2013-04-08 18:52:00,73.4,67.9,29.93,SE,141,0.0,3.0,83,0.00,,---,0.00,VWS V14.01,2013-04-08 23:52:00,
2013-04-08 18:57:00,73.1,68.0,29.93,SE,130,0.0,3.0,84,0.00,,---,0.00,VWS V14.01,2013-04-08 23:57:00,
2013-04-08 19:02:00,72.9,67.8,29.93,SE,130,0.0,3.0,84,0.00,,---,0.00,VWS V14.01,2013-04-09 00:02:00,
2013-04-08 19:07:00,72.5,67.7,29.94,ESE,121,0.0,1.0,85,0.00,,---,0.00,VWS V14.01,2013-04-09 00:07:00,
2013-04-08 19:12:00,72.3,67.9,29.94,SE,125,0.0,1.0,86,0.00,,---,0.00,VWS V14.01,2013-04-09 00:12:00,
2013-04-08 19:17:00,72.1,67.7,29.94,SSE,152,0.0,1.0,86,0.00,,---,0.00,VWS V14.01,2013-04-09 00:17:00,
2013-04-08 19:22:00,71.9,67.5,29.94,SSE,163,0.0,1.0,86,0.00,,---,0.00,VWS V14.01,2013-04-09 00:22:00,
2013-04-08 19:27:00,71.8,67.7,29.94,SSE,148,0.0,1.0,87,0.00,,---,0.00,VWS V14.01,2013-04-09 00:27:00,
2013-04-08 19:32:00,71.7,67.6,29.94,SSE,148,0.0,1.0,87,0.00,,---,0.00,VWS V14.01,2013-04-09 00:32:00,
2013-04-08 19:37:00,71.5,67.8,29.94,SSE,148,0.0,0.0,88,0.00,,---,0.00,VWS V14.01,2013-04-09 00:37:00,
2013-04-08 19:42:00,71.4,67.7,29.94,SSE,148,0.0,0.0,88,0.00,,---,0.00,VWS V14.01,2013-04-09 00:42:00,
2013-04-08 19:47:00,71.2,67.8,29.94,SSE,148,0.0,0.0,89,0.00,,---,0.00,VWS V14.01,2013-04-09 00:47:00,
2013-04-08 19:52:00,71.0,67.6,29.94,SSE,148,0.0,0.0,89,0.00,,---,0.00,VWS V14.01,2013-04-09 00:52:00,
2013-04-08 19:57:00,70.9,67.8,29.94,SSE,148,0.0,0.0,90,0.00,,---,0.00,VWS V14.01,2013-04-09 00:57:00,
2013-04-08 20:02:00,70.8,67.7,29.94,SSE,148,0.0,0.0,90,0.00,,---,0.00,VWS V14.01,2013-04-09 01:02:00,
2013-04-08 20:07:00,70.6,67.5,29.94,SSE,148,0.0,0.0,90,0.00,,---,0.00,VWS V14.01,2013-04-09 01:07:00,
2013-04-08 20:12:00,70.5,67.8,29.94,SSE,148,0.0,0.0,91,0.00,,---,0.00,VWS V14.01,2013-04-09 01:12:00,
2013-04-08 20:17:00,70.4,67.7,29.94,SSE,148,0.0,0.0,91,0.00,,---,0.00,VWS V14.01,2013-04-09 01:17:00,
2013-04-08 20:22:00,70.2,67.4,29.94,SSE,148,0.0,0.0,91,0.00,,---,0.00,VWS V14.01,2013-04-09 01:22:00,
2013-04-08 20:27:00,70.0,67.6,29.94,SSE,148,0.0,0.0,92,0.00,,---,0.00,VWS V14.01,2013-04-09 01:27:00,
2013-04-08 20:32:00,69.9,67.5,29.94,SSE,148,0.0,0.0,92,0.00,,---,0.00,VWS V14.01,2013-04-09 01:32:00,
2013-04-08 20:37:00,69.7,67.3,29.94,SSE,148,0.0,0.0,92,0.00,,---,0.00,VWS V14.01,2013-04-09 01:37:00,
2013-04-08 20:42:00,69.6,67.5,29.94,SSE,148,0.0,0.0,93,0.00,,---,0.00,VWS V14.01,2013-04-09 01:42:00,
2013-04-08 20:47:00,69.4,67.3,29.93,SSE,148,0.0,0.0,93,0.00,,---,0.00,VWS V14.01,2013-04-09 01:47:00,
2013-04-08 20:52:00,69.3,67.2,29.94,SE,139,0.0,0.0,93,0.00,,---,0.00,VWS V14.01,2013-04-09 01:52:00,
2013-04-08 20:57:00,69.3,67.2,29.94,SE,140,0.0,0.0,93,0.00,,---,0.00,VWS V14.01,2013-04-09 01:57:00,
2013-04-08 21:02:00,69.2,67.4,29.94,SE,139,0.0,0.0,94,0.00,,---,0.00,VWS V14.01,2013-04-09 02:02:00,
2013-04-08 21:07:00,69.1,67.3,29.94,SE,139,0.0,0.0,94,0.00,,---,0.00,VWS V14.01,2013-04-09 02:07:00,
2013-04-08 21:12:00,69.1,67.3,29.94,SE,139,0.0,0.0,94,0.00,,---,0.00,VWS V14.01,2013-04-09 02:12:00,
2013-04-08 21:17:00,68.9,67.1,29.94,SE,139,0.0,0.0,94,0.00,,---,0.00,VWS V14.01,2013-04-09 02:17:00,
2013-04-08 21:22:00,68.9,67.1,29.94,SE,139,0.0,0.0,94,0.00,,---,0.00,VWS V14.01,2013-04-09 02:22:00,
2013-04-08 21:27:00,68.8,67.0,29.94,SE,140,0.0,0.0,94,0.00,,---,0.00,VWS V14.01,2013-04-09 02:27:00,
2013-04-08 21:32:00,68.7,67.2,29.94,SE,139,0.0,0.0,95,0.00,,---,0.00,VWS V14.01,2013-04-09 02:32:00,
2013-04-08 21:37:00,68.6,67.1,29.94,SE,139,0.0,0.0,95,0.00,,---,0.00,VWS V14.01,2013-04-09 02:37:00,
2013-04-08 21:42:00,68.5,67.0,29.94,SE,140,0.0,0.0,95,0.00,,---,0.00,VWS V14.01,2013-04-09 02:42:00,
2013-04-08 21:48:00,68.4,66.9,29.94,SE,139,0.0,0.0,95,0.00,,---,0.00,VWS V14.01,2013-04-09 02:48:00,
2013-04-08 21:53:00,68.4,66.9,29.94,SE,139,0.0,0.0,95,0.00,,---,0.00,VWS V14.01,2013-04-09 02:53:00,
2013-04-08 21:57:00,68.3,66.8,29.94,SE,139,0.0,0.0,95,0.00,,---,0.00,VWS V14.01,2013-04-09 02:57:00,
2013-04-08 22:02:00,68.3,67.1,29.94,SE,140,0.0,0.0,96,0.00,,---,0.00,VWS V14.01,2013-04-09 03:02:00,
2013-04-08 22:08:00,68.2,67.0,29.94,SE,139,0.0,0.0,96,0.00,,---,0.00,VWS V14.01,2013-04-09 03:08:00,
2013-04-08 22:12:00,68.3,67.1,29.94,SE,139,0.0,0.0,96,0.00,,---,0.00,VWS V14.01,2013-04-09 03:12:00,
2013-04-08 22:18:00,68.3,67.1,29.94,SE,139,0.0,0.0,96,0.00,,---,0.00,VWS V14.01,2013-04-09 03:18:00,
2013-04-08 22:23:00,68.3,67.1,29.93,SE,139,0.0,0.0,96,0.00,,---,0.00,VWS V14.01,2013-04-09 03:23:00,
2013-04-08 22:27:00,68.2,67.0,29.93,SE,139,0.0,0.0,96,0.00,,---,0.00,VWS V14.01,2013-04-09 03:27:00,
2013-04-08 22:32:00,68.2,67.0,29.93,SE,139,0.0,0.0,96,0.00,,---,0.00,VWS V14.01,2013-04-09 03:32:00,
2013-04-08 22:37:00,68.2,67.3,29.93,SE,139,0.0,0.0,97,0.00,,---,0.00,VWS V14.01,2013-04-09 03:37:00,
2013-04-08 22:42:00,68.2,67.3,29.92,SE,139,0.0,0.0,97,0.00,,---,0.00,VWS V14.01,2013-04-09 03:42:00,
2013-04-08 22:47:00,68.3,67.4,29.92,SE,134,0.0,0.0,97,0.00,,---,0.00,VWS V14.01,2013-04-09 03:47:00,
2013-04-08 22:52:00,68.3,67.4,29.92,SE,129,0.0,0.0,97,0.00,,---,0.00,VWS V14.01,2013-04-09 03:52:00,
2013-04-08 22:57:00,68.4,67.5,29.92,SE,129,0.0,1.0,97,0.00,,---,0.00,VWS V14.01,2013-04-09 03:57:00,
2013-04-08 23:00:00,68.4,67.5,29.92,SE,129,0.0,1.0,97,0.00,,---,0.00,VWS V14.01,2013-04-09 04:00:00,
2013-04-08 23:01:00,68.4,67.5,29.91,SE,128,0.0,1.0,97,0.00,,---,0.00,VWS V14.01,2013-04-09 04:01:00,
2013-04-08 23:06:00,68.4,67.5,29.92,SE,129,0.0,1.0,97,0.00,,---,0.00,VWS V14.01,2013-04-09 04:06:00,
2013-04-08 23:12:00,68.5,67.6,29.91,SE,128,0.0,1.0,97,0.00,,---,0.00,VWS V14.01,2013-04-09 04:12:00,
2013-04-08 23:17:00,68.5,67.6,29.91,SE,128,0.0,1.0,97,0.00,,---,0.00,VWS V14.01,2013-04-09 04:17:00,
2013-04-08 23:22:00,68.6,67.7,29.91,SE,127,0.0,1.0,97,0.00,,---,0.00,VWS V14.01,2013-04-09 04:22:00,
2013-04-08 23:27:00,68.7,67.8,29.91,SE,129,0.0,1.0,97,0.00,,---,0.00,VWS V14.01,2013-04-09 04:27:00,
2013-04-08 23:32:00,68.8,67.9,29.91,ESE,118,0.0,1.0,97,0.00,,---,0.00,VWS V14.01,2013-04-09 04:32:00,
2013-04-08 23:37:00,68.9,68.0,29.90,ESE,121,0.0,1.0,97,0.00,,---,0.00,VWS V14.01,2013-04-09 04:37:00,
2013-04-08 23:42:00,69.0,68.1,29.91,SE,146,0.0,1.0,97,0.00,,---,0.00,VWS V14.01,2013-04-09 04:42:00,
2013-04-08 23:47:00,69.1,68.2,29.90,SE,131,0.0,1.0,97,0.00,,---,0.00,VWS V14.01,2013-04-09 04:47:00,
2013-04-08 23:52:00,69.2,68.3,29.90,ESE,106,0.0,1.0,97,0.00,,---,0.00,VWS V14.01,2013-04-09 04:52:00,
2013-04-08 23:57:00,69.3,68.4,29.90,SE,131,0.0,1.0,97,0.00,,---,0.00,VWS V14.01,2013-04-09 04:57:00,